sensor_id;sensor_type;location;lat;lon;timestamp;temperature;humidity
53802;DHT22;39709;53.334;6.534;2023-06-14T02:02:15;16.30;1.00
53802;DHT22;39709;53.334;6.534;2023-06-14T02:04:41;16.20;1.00
53802;DHT22;39709;53.334;6.534;2023-06-14T02:07:07;16.10;1.00
53802;DHT22;39709;53.334;6.534;2023-06-14T02:09:34;16.10;1.00
53802;DHT22;39709;53.334;6.534;2023-06-14T02:12:01;16.10;1.00
53802;DHT22;39709;53.334;6.534;2023-06-14T02:14:26;16.20;1.00
53802;DHT22;39709;53.334;6.534;2023-06-14T02:16:52;16.10;1.00
53802;DHT22;39709;53.334;6.534;2023-06-14T02:19:19;16.10;1.00
53802;DHT22;39709;53.334;6.534;2023-06-14T02:21:46;16.10;1.00
53802;DHT22;39709;53.334;6.534;2023-06-14T02:24:12;16.10;1.00
53802;DHT22;39709;53.334;6.534;2023-06-14T02:26:38;16.10;1.00
53802;DHT22;39709;53.334;6.534;2023-06-14T02:29:07;16.00;1.00
53802;DHT22;39709;53.334;6.534;2023-06-14T02:31:35;16.10;1.00
53802;DHT22;39709;53.334;6.534;2023-06-14T02:34:01;16.10;1.00
53802;DHT22;39709;53.334;6.534;2023-06-14T02:36:27;16.00;1.00
53802;DHT22;39709;53.334;6.534;2023-06-14T02:38:55;15.90;1.00
53802;DHT22;39709;53.334;6.534;2023-06-14T02:41:23;15.90;1.00
53802;DHT22;39709;53.334;6.534;2023-06-14T02:43:49;15.80;1.00
53802;DHT22;39709;53.334;6.534;2023-06-14T02:46:15;15.80;1.00
53802;DHT22;39709;53.334;6.534;2023-06-14T02:48:41;15.80;1.00
53802;DHT22;39709;53.334;6.534;2023-06-14T02:51:06;15.90;1.00
53802;DHT22;39709;53.334;6.534;2023-06-14T02:53:34;15.80;1.00
53802;DHT22;39709;53.334;6.534;2023-06-14T02:56:00;15.70;1.00
53802;DHT22;39709;53.334;6.534;2023-06-14T02:58:26;15.80;1.00
53802;DHT22;39709;53.334;6.534;2023-06-14T03:00:52;15.80;1.00
53802;DHT22;39709;53.334;6.534;2023-06-14T03:03:18;15.70;1.00
53802;DHT22;39709;53.334;6.534;2023-06-14T03:05:47;15.60;1.00
53802;DHT22;39709;53.334;6.534;2023-06-14T03:08:16;15.50;1.00
53802;DHT22;39709;53.334;6.534;2023-06-14T03:10:47;15.60;1.00
53802;DHT22;39709;53.334;6.534;2023-06-14T03:13:13;15.50;1.00
53802;DHT22;39709;53.334;6.534;2023-06-14T03:15:39;15.50;1.00
53802;DHT22;39709;53.334;6.534;2023-06-14T03:18:07;15.70;1.00
53802;DHT22;39709;53.334;6.534;2023-06-14T03:20:35;15.70;1.00
53802;DHT22;39709;53.334;6.534;2023-06-14T03:23:01;15.70;1.00
53802;DHT22;39709;53.334;6.534;2023-06-14T03:25:28;15.70;1.00
53802;DHT22;39709;53.334;6.534;2023-06-14T03:27:56;15.80;1.00
53802;DHT22;39709;53.334;6.534;2023-06-14T03:30:22;15.90;1.00
53802;DHT22;39709;53.334;6.534;2023-06-14T03:32:47;16.00;1.00
53802;DHT22;39709;53.334;6.534;2023-06-14T03:35:13;16.00;1.00
53802;DHT22;39709;53.334;6.534;2023-06-14T03:37:46;16.10;1.00
53802;DHT22;39709;53.334;6.534;2023-06-14T03:40:13;16.10;1.00
53802;DHT22;39709;53.334;6.534;2023-06-14T03:42:39;16.10;1.00
53802;DHT22;39709;53.334;6.534;2023-06-14T03:45:06;16.10;1.00
53802;DHT22;39709;53.334;6.534;2023-06-14T03:47:32;16.10;1.00
53802;DHT22;39709;53.334;6.534;2023-06-14T03:49:58;16.10;1.00
53802;DHT22;39709;53.334;6.534;2023-06-14T03:52:23;16.20;1.00
53802;DHT22;39709;53.334;6.534;2023-06-14T03:54:50;16.20;1.00
53802;DHT22;39709;53.334;6.534;2023-06-14T03:57:17;16.30;1.00
53802;DHT22;39709;53.334;6.534;2023-06-14T03:59:43;16.30;1.00
53802;DHT22;39709;53.334;6.534;2023-06-14T04:02:08;16.20;1.00
53802;DHT22;39709;53.334;6.534;2023-06-14T04:04:40;16.20;1.00
53802;DHT22;39709;53.334;6.534;2023-06-14T04:07:13;16.30;1.00
53802;DHT22;39709;53.334;6.534;2023-06-14T04:09:39;16.50;1.00
53802;DHT22;39709;53.334;6.534;2023-06-14T04:12:06;16.60;1.00
53802;DHT22;39709;53.334;6.534;2023-06-14T04:14:32;16.60;1.00
53802;DHT22;39709;53.334;6.534;2023-06-14T04:16:58;16.60;1.00
53802;DHT22;39709;53.334;6.534;2023-06-14T04:19:24;16.60;99.90
53802;DHT22;39709;53.334;6.534;2023-06-14T04:21:50;16.50;1.00
53802;DHT22;39709;53.334;6.534;2023-06-14T04:24:16;16.40;1.00
53802;DHT22;39709;53.334;6.534;2023-06-14T04:26:42;16.50;1.00
53802;DHT22;39709;53.334;6.534;2023-06-14T04:29:12;16.40;1.00
53802;DHT22;39709;53.334;6.534;2023-06-14T04:31:43;16.50;1.00
53802;DHT22;39709;53.334;6.534;2023-06-14T04:34:10;16.50;1.00
53802;DHT22;39709;53.334;6.534;2023-06-14T04:36:42;16.60;1.00
53802;DHT22;39709;53.334;6.534;2023-06-14T04:39:20;16.50;1.00
53802;DHT22;39709;53.334;6.534;2023-06-14T04:41:46;16.50;1.00
53802;DHT22;39709;53.334;6.534;2023-06-14T04:44:13;16.60;1.00
53802;DHT22;39709;53.334;6.534;2023-06-14T04:46:39;16.50;1.00
53802;DHT22;39709;53.334;6.534;2023-06-14T04:49:17;16.60;99.90
53802;DHT22;39709;53.334;6.534;2023-06-14T04:51:44;16.70;99.90
53802;DHT22;39709;53.334;6.534;2023-06-14T04:54:11;16.70;99.90
53802;DHT22;39709;53.334;6.534;2023-06-14T04:56:43;16.70;99.90
53802;DHT22;39709;53.334;6.534;2023-06-14T04:59:09;16.80;99.90
53802;DHT22;39709;53.334;6.534;2023-06-14T05:01:37;16.90;99.90
53802;DHT22;39709;53.334;6.534;2023-06-14T05:04:03;16.90;99.90
53802;DHT22;39709;53.334;6.534;2023-06-14T05:06:30;16.90;99.90
53802;DHT22;39709;53.334;6.534;2023-06-14T05:08:56;17.00;99.90
53802;DHT22;39709;53.334;6.534;2023-06-14T05:11:22;17.00;99.90
53802;DHT22;39709;53.334;6.534;2023-06-14T05:13:50;17.00;99.90
53802;DHT22;39709;53.334;6.534;2023-06-14T05:16:17;17.10;99.90
53802;DHT22;39709;53.334;6.534;2023-06-14T05:18:45;17.20;99.90
53802;DHT22;39709;53.334;6.534;2023-06-14T05:21:11;17.40;99.90
53802;DHT22;39709;53.334;6.534;2023-06-14T05:23:37;17.50;99.90
53802;DHT22;39709;53.334;6.534;2023-06-14T05:26:03;17.60;99.90
53802;DHT22;39709;53.334;6.534;2023-06-14T05:28:30;17.70;99.90
53802;DHT22;39709;53.334;6.534;2023-06-14T05:30:56;17.80;99.90
53802;DHT22;39709;53.334;6.534;2023-06-14T05:33:23;17.80;99.90
53802;DHT22;39709;53.334;6.534;2023-06-14T05:35:49;17.90;99.90
53802;DHT22;39709;53.334;6.534;2023-06-14T05:38:14;17.40;99.90
53802;DHT22;39709;53.334;6.534;2023-06-14T05:40:40;18.00;99.90
53802;DHT22;39709;53.334;6.534;2023-06-14T05:43:06;18.10;99.90
53802;DHT22;39709;53.334;6.534;2023-06-14T05:45:31;18.20;99.90
53802;DHT22;39709;53.334;6.534;2023-06-14T05:47:57;18.20;99.90
53802;DHT22;39709;53.334;6.534;2023-06-14T05:50:23;18.30;99.90
53802;DHT22;39709;53.334;6.534;2023-06-14T05:52:48;18.40;99.90
53802;DHT22;39709;53.334;6.534;2023-06-14T05:55:16;18.50;99.90
53802;DHT22;39709;53.334;6.534;2023-06-14T05:57:42;18.60;99.90
53802;DHT22;39709;53.334;6.534;2023-06-14T06:00:08;18.70;99.90
53802;DHT22;39709;53.334;6.534;2023-06-14T06:02:41;18.70;99.90
53802;DHT22;39709;53.334;6.534;2023-06-14T06:05:08;18.70;99.90
53802;DHT22;39709;53.334;6.534;2023-06-14T06:07:34;19.10;99.90
53802;DHT22;39709;53.334;6.534;2023-06-14T06:09:59;19.10;99.90
53802;DHT22;39709;53.334;6.534;2023-06-14T06:12:25;19.30;99.90
53802;DHT22;39709;53.334;6.534;2023-06-14T06:14:51;19.50;99.90
53802;DHT22;39709;53.334;6.534;2023-06-14T06:17:16;19.60;99.90
53802;DHT22;39709;53.334;6.534;2023-06-14T06:19:42;19.70;99.90
53802;DHT22;39709;53.334;6.534;2023-06-14T06:22:08;19.80;99.90
53802;DHT22;39709;53.334;6.534;2023-06-14T06:24:33;19.90;99.90
53802;DHT22;39709;53.334;6.534;2023-06-14T06:26:59;19.90;99.90
53802;DHT22;39709;53.334;6.534;2023-06-14T06:29:25;20.10;99.90
53802;DHT22;39709;53.334;6.534;2023-06-14T06:31:51;20.30;99.90
53802;DHT22;39709;53.334;6.534;2023-06-14T06:34:17;20.30;99.90
53802;DHT22;39709;53.334;6.534;2023-06-14T06:36:42;20.40;99.90
53802;DHT22;39709;53.334;6.534;2023-06-14T06:39:08;20.50;99.90
53802;DHT22;39709;53.334;6.534;2023-06-14T06:41:38;20.70;99.90
53802;DHT22;39709;53.334;6.534;2023-06-14T06:44:05;20.70;99.90
53802;DHT22;39709;53.334;6.534;2023-06-14T06:46:32;20.90;99.90
53802;DHT22;39709;53.334;6.534;2023-06-14T06:48:59;21.00;99.90
53802;DHT22;39709;53.334;6.534;2023-06-14T06:51:25;21.00;99.90
53802;DHT22;39709;53.334;6.534;2023-06-14T06:53:54;21.20;99.90
53802;DHT22;39709;53.334;6.534;2023-06-14T06:56:21;21.10;99.90
53802;DHT22;39709;53.334;6.534;2023-06-14T06:58:49;21.20;99.90
53802;DHT22;39709;53.334;6.534;2023-06-14T07:01:15;21.30;99.90
53802;DHT22;39709;53.334;6.534;2023-06-14T07:03:41;21.40;99.90
53802;DHT22;39709;53.334;6.534;2023-06-14T07:06:07;21.60;99.90
53802;DHT22;39709;53.334;6.534;2023-06-14T07:08:32;21.50;99.90
53802;DHT22;39709;53.334;6.534;2023-06-14T07:10:58;21.70;99.90
53802;DHT22;39709;53.334;6.534;2023-06-14T07:13:24;21.70;99.90
53802;DHT22;39709;53.334;6.534;2023-06-14T07:15:49;21.80;99.90
53802;DHT22;39709;53.334;6.534;2023-06-14T07:18:16;21.90;99.90
53802;DHT22;39709;53.334;6.534;2023-06-14T07:20:42;22.00;99.90
53802;DHT22;39709;53.334;6.534;2023-06-14T07:23:08;22.10;99.90
53802;DHT22;39709;53.334;6.534;2023-06-14T07:25:34;22.40;99.90
53802;DHT22;39709;53.334;6.534;2023-06-14T07:27:59;22.40;99.90
53802;DHT22;39709;53.334;6.534;2023-06-14T07:30:25;22.50;99.90
53802;DHT22;39709;53.334;6.534;2023-06-14T07:32:53;22.40;99.90
53802;DHT22;39709;53.334;6.534;2023-06-14T07:35:19;22.40;99.90
53802;DHT22;39709;53.334;6.534;2023-06-14T07:37:44;22.70;99.90
53802;DHT22;39709;53.334;6.534;2023-06-14T07:40:13;22.80;99.90
53802;DHT22;39709;53.334;6.534;2023-06-14T07:42:38;23.00;99.90
53802;DHT22;39709;53.334;6.534;2023-06-14T07:45:05;23.10;99.90
53802;DHT22;39709;53.334;6.534;2023-06-14T07:47:31;23.20;99.90
53802;DHT22;39709;53.334;6.534;2023-06-14T07:49:57;23.20;99.90
53802;DHT22;39709;53.334;6.534;2023-06-14T07:52:23;23.30;99.90
53802;DHT22;39709;53.334;6.534;2023-06-14T07:54:48;23.20;99.90
53802;DHT22;39709;53.334;6.534;2023-06-14T07:57:14;23.40;99.90
53802;DHT22;39709;53.334;6.534;2023-06-14T07:59:40;23.50;99.90
53802;DHT22;39709;53.334;6.534;2023-06-14T08:02:06;23.50;99.90
53802;DHT22;39709;53.334;6.534;2023-06-14T08:04:32;23.60;99.90
53802;DHT22;39709;53.334;6.534;2023-06-14T08:06:59;23.80;99.90
53802;DHT22;39709;53.334;6.534;2023-06-14T08:09:25;23.90;99.90
53802;DHT22;39709;53.334;6.534;2023-06-14T08:11:51;24.10;99.90
53802;DHT22;39709;53.334;6.534;2023-06-14T08:14:16;24.20;99.90
53802;DHT22;39709;53.334;6.534;2023-06-14T08:16:42;24.30;99.90
53802;DHT22;39709;53.334;6.534;2023-06-14T08:19:08;24.30;99.90
53802;DHT22;39709;53.334;6.534;2023-06-14T08:21:34;24.30;99.90
53802;DHT22;39709;53.334;6.534;2023-06-14T08:24:02;24.50;99.90
53802;DHT22;39709;53.334;6.534;2023-06-14T08:26:29;24.50;99.90
53802;DHT22;39709;53.334;6.534;2023-06-14T08:28:55;24.60;99.90
53802;DHT22;39709;53.334;6.534;2023-06-14T08:31:21;24.80;99.90
53802;DHT22;39709;53.334;6.534;2023-06-14T08:33:47;24.70;99.90
53802;DHT22;39709;53.334;6.534;2023-06-14T08:36:13;24.50;99.90
53802;DHT22;39709;53.334;6.534;2023-06-14T08:38:39;24.60;99.90
53802;DHT22;39709;53.334;6.534;2023-06-14T08:41:06;24.80;99.90
53802;DHT22;39709;53.334;6.534;2023-06-14T08:43:32;25.00;99.90
53802;DHT22;39709;53.334;6.534;2023-06-14T08:46:03;24.90;99.90
53802;DHT22;39709;53.334;6.534;2023-06-14T08:48:30;25.10;99.90
53802;DHT22;39709;53.334;6.534;2023-06-14T08:51:02;25.20;99.90
53802;DHT22;39709;53.334;6.534;2023-06-14T08:53:32;25.20;99.90
53802;DHT22;39709;53.334;6.534;2023-06-14T08:56:03;25.40;99.90
53802;DHT22;39709;53.334;6.534;2023-06-14T08:58:34;25.30;99.90
53802;DHT22;39709;53.334;6.534;2023-06-14T09:01:03;25.30;99.90
53802;DHT22;39709;53.334;6.534;2023-06-14T09:03:30;25.40;99.90
53802;DHT22;39709;53.334;6.534;2023-06-14T09:05:59;25.50;99.90
53802;DHT22;39709;53.334;6.534;2023-06-14T09:08:27;25.60;99.90
53802;DHT22;39709;53.334;6.534;2023-06-14T09:10:56;25.50;99.90
53802;DHT22;39709;53.334;6.534;2023-06-14T09:13:22;25.50;99.90
53802;DHT22;39709;53.334;6.534;2023-06-14T09:15:47;25.80;99.90
53802;DHT22;39709;53.334;6.534;2023-06-14T09:18:13;25.90;99.90
53802;DHT22;39709;53.334;6.534;2023-06-14T09:20:40;25.80;99.90
53802;DHT22;39709;53.334;6.534;2023-06-14T09:23:06;25.80;99.90
53802;DHT22;39709;53.334;6.534;2023-06-14T09:25:41;25.80;99.90
53802;DHT22;39709;53.334;6.534;2023-06-14T09:28:08;25.70;99.90
53802;DHT22;39709;53.334;6.534;2023-06-14T09:30:35;25.90;99.90
53802;DHT22;39709;53.334;6.534;2023-06-14T09:33:00;25.90;99.90
53802;DHT22;39709;53.334;6.534;2023-06-14T09:35:26;26.00;99.90
53802;DHT22;39709;53.334;6.534;2023-06-14T09:37:55;26.00;99.90
53802;DHT22;39709;53.334;6.534;2023-06-14T09:40:21;25.90;99.90
53802;DHT22;39709;53.334;6.534;2023-06-14T09:42:47;26.00;99.90
53802;DHT22;39709;53.334;6.534;2023-06-14T09:45:13;26.00;99.90
53802;DHT22;39709;53.334;6.534;2023-06-14T09:47:39;26.20;99.90
53802;DHT22;39709;53.334;6.534;2023-06-14T09:50:06;26.10;99.90
53802;DHT22;39709;53.334;6.534;2023-06-14T09:52:32;26.00;99.90
53802;DHT22;39709;53.334;6.534;2023-06-14T09:54:59;26.10;99.90
53802;DHT22;39709;53.334;6.534;2023-06-14T09:57:25;26.20;99.90
53802;DHT22;39709;53.334;6.534;2023-06-14T10:00:01;26.20;99.90
53802;DHT22;39709;53.334;6.534;2023-06-14T10:02:35;26.30;99.90
53802;DHT22;39709;53.334;6.534;2023-06-14T10:05:08;26.20;99.90
53802;DHT22;39709;53.334;6.534;2023-06-14T10:07:52;26.40;99.90
53802;DHT22;39709;53.334;6.534;2023-06-14T10:10:19;26.40;99.90
53802;DHT22;39709;53.334;6.534;2023-06-14T10:12:45;26.50;99.90
53802;DHT22;39709;53.334;6.534;2023-06-14T10:15:20;26.50;99.90
53802;DHT22;39709;53.334;6.534;2023-06-14T10:23:24;26.40;99.90
53802;DHT22;39709;53.334;6.534;2023-06-14T10:25:57;26.50;99.90
53802;DHT22;39709;53.334;6.534;2023-06-14T10:28:23;26.60;99.90
53802;DHT22;39709;53.334;6.534;2023-06-14T10:31:10;26.60;99.90
53802;DHT22;39709;53.334;6.534;2023-06-14T10:33:38;26.40;99.90
53802;DHT22;39709;53.334;6.534;2023-06-14T10:38:34;26.70;99.90
53802;DHT22;39709;53.334;6.534;2023-06-14T10:41:02;26.50;99.90
53802;DHT22;39709;53.334;6.534;2023-06-14T10:43:28;26.50;99.90
53802;DHT22;39709;53.334;6.534;2023-06-14T10:46:13;26.60;99.90
53802;DHT22;39709;53.334;6.534;2023-06-14T10:48:43;26.80;99.90
53802;DHT22;39709;53.334;6.534;2023-06-14T10:51:19;26.60;99.90
53802;DHT22;39709;53.334;6.534;2023-06-14T10:53:50;26.80;99.90
53802;DHT22;39709;53.334;6.534;2023-06-14T10:56:32;26.70;99.90
53802;DHT22;39709;53.334;6.534;2023-06-14T10:58:58;26.70;99.90
53802;DHT22;39709;53.334;6.534;2023-06-14T11:01:36;26.70;99.90
53802;DHT22;39709;53.334;6.534;2023-06-14T11:04:12;26.40;99.90
53802;DHT22;39709;53.334;6.534;2023-06-14T11:06:48;26.50;99.90
53802;DHT22;39709;53.334;6.534;2023-06-14T11:12:04;26.40;99.90
53802;DHT22;39709;53.334;6.534;2023-06-14T11:14:31;26.60;99.90
53802;DHT22;39709;53.334;6.534;2023-06-14T11:16:56;26.80;99.90
53802;DHT22;39709;53.334;6.534;2023-06-14T11:19:22;26.70;99.90
53802;DHT22;39709;53.334;6.534;2023-06-14T11:21:48;26.70;99.90
53802;DHT22;39709;53.334;6.534;2023-06-14T11:24:14;26.70;99.90
53802;DHT22;39709;53.334;6.534;2023-06-14T11:26:40;26.40;99.90
53802;DHT22;39709;53.334;6.534;2023-06-14T11:29:06;26.80;99.90
53802;DHT22;39709;53.334;6.534;2023-06-14T11:31:31;26.60;99.90
53802;DHT22;39709;53.334;6.534;2023-06-14T11:33:59;26.70;99.90
53802;DHT22;39709;53.334;6.534;2023-06-14T11:36:29;26.80;99.30
53802;DHT22;39709;53.334;6.534;2023-06-14T11:39:05;26.80;99.00
53802;DHT22;39709;53.334;6.534;2023-06-14T11:41:45;27.00;97.30
53802;DHT22;39709;53.334;6.534;2023-06-14T11:44:11;27.10;97.70
53802;DHT22;39709;53.334;6.534;2023-06-14T11:46:37;26.80;99.30
53802;DHT22;39709;53.334;6.534;2023-06-14T11:49:04;26.80;99.00
53802;DHT22;39709;53.334;6.534;2023-06-14T11:51:34;27.00;99.00
53802;DHT22;39709;53.334;6.534;2023-06-14T11:54:03;26.90;99.20
53802;DHT22;39709;53.334;6.534;2023-06-14T11:56:31;27.00;99.10
53802;DHT22;39709;53.334;6.534;2023-06-14T11:58:57;26.80;99.90
53802;DHT22;39709;53.334;6.534;2023-06-14T12:01:23;26.90;98.80
53802;DHT22;39709;53.334;6.534;2023-06-14T12:03:50;27.30;96.80
53802;DHT22;39709;53.334;6.534;2023-06-14T12:06:16;27.40;95.20
53802;DHT22;39709;53.334;6.534;2023-06-14T12:08:50;27.40;95.40
53802;DHT22;39709;53.334;6.534;2023-06-14T12:11:16;27.30;95.40
53802;DHT22;39709;53.334;6.534;2023-06-14T12:13:43;27.40;95.20
53802;DHT22;39709;53.334;6.534;2023-06-14T12:16:12;27.20;95.90
53802;DHT22;39709;53.334;6.534;2023-06-14T12:18:39;27.30;96.00
53802;DHT22;39709;53.334;6.534;2023-06-14T12:21:07;27.50;95.10
53802;DHT22;39709;53.334;6.534;2023-06-14T12:23:46;27.50;94.50
53802;DHT22;39709;53.334;6.534;2023-06-14T12:26:16;27.50;93.70
53802;DHT22;39709;53.334;6.534;2023-06-14T12:28:46;27.60;90.40
53802;DHT22;39709;53.334;6.534;2023-06-14T12:31:14;27.70;90.80
53802;DHT22;39709;53.334;6.534;2023-06-14T12:33:40;27.90;90.40
53802;DHT22;39709;53.334;6.534;2023-06-14T12:36:07;28.00;85.80
53802;DHT22;39709;53.334;6.534;2023-06-14T12:38:34;28.00;85.20
53802;DHT22;39709;53.334;6.534;2023-06-14T12:41:00;27.90;87.60
53802;DHT22;39709;53.334;6.534;2023-06-14T12:43:27;28.10;86.50
53802;DHT22;39709;53.334;6.534;2023-06-14T12:45:53;28.00;84.20
53802;DHT22;39709;53.334;6.534;2023-06-14T12:48:19;27.90;85.50
53802;DHT22;39709;53.334;6.534;2023-06-14T12:50:45;27.70;88.10
53802;DHT22;39709;53.334;6.534;2023-06-14T12:53:10;27.70;90.30
53802;DHT22;39709;53.334;6.534;2023-06-14T12:55:36;27.50;91.60
53802;DHT22;39709;53.334;6.534;2023-06-14T12:58:02;27.30;91.90
53802;DHT22;39709;53.334;6.534;2023-06-14T13:00:27;27.40;92.70
53802;DHT22;39709;53.334;6.534;2023-06-14T13:02:58;27.40;91.60
53802;DHT22;39709;53.334;6.534;2023-06-14T13:05:24;27.40;91.60
53802;DHT22;39709;53.334;6.534;2023-06-14T13:07:50;27.50;91.20
53802;DHT22;39709;53.334;6.534;2023-06-14T13:10:16;27.40;91.40
53802;DHT22;39709;53.334;6.534;2023-06-14T13:12:42;27.50;90.60
53802;DHT22;39709;53.334;6.534;2023-06-14T13:15:08;27.40;90.30
53802;DHT22;39709;53.334;6.534;2023-06-14T13:17:35;27.50;89.60
53802;DHT22;39709;53.334;6.534;2023-06-14T13:20:08;27.60;89.30
53802;DHT22;39709;53.334;6.534;2023-06-14T13:22:34;27.50;89.80
53802;DHT22;39709;53.334;6.534;2023-06-14T13:25:00;27.50;90.40
53802;DHT22;39709;53.334;6.534;2023-06-14T13:27:26;27.60;90.60
53802;DHT22;39709;53.334;6.534;2023-06-14T13:29:53;27.60;88.30
53802;DHT22;39709;53.334;6.534;2023-06-14T13:32:21;27.70;85.50
53802;DHT22;39709;53.334;6.534;2023-06-14T13:34:47;27.70;85.90
53802;DHT22;39709;53.334;6.534;2023-06-14T13:37:12;27.80;83.20
53802;DHT22;39709;53.334;6.534;2023-06-14T13:39:38;27.90;81.60
53802;DHT22;39709;53.334;6.534;2023-06-14T13:42:04;27.80;84.80
53802;DHT22;39709;53.334;6.534;2023-06-14T13:44:30;27.40;92.10
53802;DHT22;39709;53.334;6.534;2023-06-14T13:46:56;27.20;97.30
53802;DHT22;39709;53.334;6.534;2023-06-14T13:49:22;26.70;99.90
53802;DHT22;39709;53.334;6.534;2023-06-14T13:51:48;27.00;99.90
53802;DHT22;39709;53.334;6.534;2023-06-14T13:54:14;27.20;99.90
53802;DHT22;39709;53.334;6.534;2023-06-14T13:56:41;26.80;99.90
53802;DHT22;39709;53.334;6.534;2023-06-14T13:59:06;27.10;99.90
53802;DHT22;39709;53.334;6.534;2023-06-14T14:01:32;27.00;99.90
53802;DHT22;39709;53.334;6.534;2023-06-14T14:03:58;26.50;99.90
53802;DHT22;39709;53.334;6.534;2023-06-14T14:06:26;26.90;99.90
53802;DHT22;39709;53.334;6.534;2023-06-14T14:08:52;25.80;99.90
53802;DHT22;39709;53.334;6.534;2023-06-14T14:11:18;25.90;99.90
53802;DHT22;39709;53.334;6.534;2023-06-14T14:13:44;26.00;99.90
53802;DHT22;39709;53.334;6.534;2023-06-14T14:16:10;25.70;99.90
53802;DHT22;39709;53.334;6.534;2023-06-14T14:18:36;26.10;99.90
53802;DHT22;39709;53.334;6.534;2023-06-14T14:21:02;26.30;99.90
53802;DHT22;39709;53.334;6.534;2023-06-14T14:23:28;26.20;99.90
53802;DHT22;39709;53.334;6.534;2023-06-14T14:25:55;26.00;99.90
53802;DHT22;39709;53.334;6.534;2023-06-14T14:28:20;25.90;99.90
53802;DHT22;39709;53.334;6.534;2023-06-14T14:30:47;26.20;99.90
53802;DHT22;39709;53.334;6.534;2023-06-14T14:33:16;25.80;99.90
53802;DHT22;39709;53.334;6.534;2023-06-14T14:35:45;25.40;99.90
53802;DHT22;39709;53.334;6.534;2023-06-14T14:38:15;25.10;99.90
53802;DHT22;39709;53.334;6.534;2023-06-14T14:40:42;25.50;99.90
53802;DHT22;39709;53.334;6.534;2023-06-14T14:43:08;25.90;99.90
53802;DHT22;39709;53.334;6.534;2023-06-14T14:45:33;26.20;99.90
53802;DHT22;39709;53.334;6.534;2023-06-14T14:48:00;26.30;99.90
53802;DHT22;39709;53.334;6.534;2023-06-14T14:50:26;26.70;99.90
53802;DHT22;39709;53.334;6.534;2023-06-14T14:52:52;26.40;99.90
53802;DHT22;39709;53.334;6.534;2023-06-14T14:55:17;26.10;99.90
53802;DHT22;39709;53.334;6.534;2023-06-14T14:57:45;26.60;99.90
53802;DHT22;39709;53.334;6.534;2023-06-14T15:00:11;26.70;99.90
53802;DHT22;39709;53.334;6.534;2023-06-14T15:02:37;26.60;99.90
53802;DHT22;39709;53.334;6.534;2023-06-14T15:05:03;26.30;99.90
53802;DHT22;39709;53.334;6.534;2023-06-14T15:07:29;25.70;99.90
53802;DHT22;39709;53.334;6.534;2023-06-14T15:09:55;25.90;99.90
53802;DHT22;39709;53.334;6.534;2023-06-14T15:12:21;25.40;99.90
53802;DHT22;39709;53.334;6.534;2023-06-14T15:14:50;25.40;99.90
53802;DHT22;39709;53.334;6.534;2023-06-14T15:17:17;26.10;99.90
53802;DHT22;39709;53.334;6.534;2023-06-14T15:19:47;26.10;99.90
53802;DHT22;39709;53.334;6.534;2023-06-14T15:22:16;26.40;99.90
53802;DHT22;39709;53.334;6.534;2023-06-14T15:24:42;26.00;99.90
53802;DHT22;39709;53.334;6.534;2023-06-14T15:27:08;25.80;99.90
53802;DHT22;39709;53.334;6.534;2023-06-14T15:29:34;25.90;99.90
53802;DHT22;39709;53.334;6.534;2023-06-14T15:32:01;26.30;99.90
53802;DHT22;39709;53.334;6.534;2023-06-14T15:34:27;25.80;99.90
53802;DHT22;39709;53.334;6.534;2023-06-14T15:36:52;25.20;99.90
53802;DHT22;39709;53.334;6.534;2023-06-14T15:39:18;25.40;99.90
53802;DHT22;39709;53.334;6.534;2023-06-14T15:41:44;25.40;99.90
53802;DHT22;39709;53.334;6.534;2023-06-14T15:44:09;25.20;99.90
53802;DHT22;39709;53.334;6.534;2023-06-14T15:46:36;25.40;99.90
53802;DHT22;39709;53.334;6.534;2023-06-14T15:49:09;26.00;99.90
53802;DHT22;39709;53.334;6.534;2023-06-14T15:51:36;26.50;99.90
53802;DHT22;39709;53.334;6.534;2023-06-14T15:54:02;26.60;99.90
53802;DHT22;39709;53.334;6.534;2023-06-14T15:56:27;26.30;99.90
53802;DHT22;39709;53.334;6.534;2023-06-14T15:58:53;26.20;99.90
53802;DHT22;39709;53.334;6.534;2023-06-14T16:01:19;26.60;99.90
53802;DHT22;39709;53.334;6.534;2023-06-14T16:03:44;26.50;99.90
53802;DHT22;39709;53.334;6.534;2023-06-14T16:06:10;26.90;99.90
53802;DHT22;39709;53.334;6.534;2023-06-14T16:08:36;26.90;99.90
53802;DHT22;39709;53.334;6.534;2023-06-14T16:11:01;27.30;99.90
53802;DHT22;39709;53.334;6.534;2023-06-14T16:13:27;26.50;99.90
53802;DHT22;39709;53.334;6.534;2023-06-14T16:15:52;26.30;99.90
53802;DHT22;39709;53.334;6.534;2023-06-14T16:18:18;26.60;99.90
53802;DHT22;39709;53.334;6.534;2023-06-14T16:20:44;26.40;99.90
53802;DHT22;39709;53.334;6.534;2023-06-14T16:23:10;26.70;99.90
53802;DHT22;39709;53.334;6.534;2023-06-14T16:25:36;26.90;99.90
53802;DHT22;39709;53.334;6.534;2023-06-14T16:28:02;27.40;99.90
53802;DHT22;39709;53.334;6.534;2023-06-14T16:30:28;27.40;99.90
53802;DHT22;39709;53.334;6.534;2023-06-14T16:32:53;27.80;99.90
53802;DHT22;39709;53.334;6.534;2023-06-14T16:35:19;27.80;99.90
53802;DHT22;39709;53.334;6.534;2023-06-14T16:37:45;27.50;99.90
53802;DHT22;39709;53.334;6.534;2023-06-14T16:40:11;27.50;99.90
53802;DHT22;39709;53.334;6.534;2023-06-14T16:42:36;27.70;99.90
53802;DHT22;39709;53.334;6.534;2023-06-14T16:45:02;27.60;99.90
53802;DHT22;39709;53.334;6.534;2023-06-14T16:47:28;27.50;99.90
53802;DHT22;39709;53.334;6.534;2023-06-14T16:49:53;27.50;99.90
53802;DHT22;39709;53.334;6.534;2023-06-14T16:52:19;27.20;99.90
53802;DHT22;39709;53.334;6.534;2023-06-14T16:54:45;27.30;99.90
53802;DHT22;39709;53.334;6.534;2023-06-14T16:57:11;27.00;99.90
53802;DHT22;39709;53.334;6.534;2023-06-14T16:59:36;27.30;99.90
53802;DHT22;39709;53.334;6.534;2023-06-14T17:02:03;27.70;99.90
53802;DHT22;39709;53.334;6.534;2023-06-14T17:04:30;27.80;99.90
53802;DHT22;39709;53.334;6.534;2023-06-14T17:06:56;27.90;99.90
53802;DHT22;39709;53.334;6.534;2023-06-14T17:09:22;27.40;99.90
53802;DHT22;39709;53.334;6.534;2023-06-14T17:11:47;27.70;99.90
53802;DHT22;39709;53.334;6.534;2023-06-14T17:14:14;27.70;99.90
53802;DHT22;39709;53.334;6.534;2023-06-14T17:16:40;27.80;99.90
53802;DHT22;39709;53.334;6.534;2023-06-14T17:19:06;28.00;99.90
53802;DHT22;39709;53.334;6.534;2023-06-14T17:21:32;28.20;99.90
53802;DHT22;39709;53.334;6.534;2023-06-14T17:23:57;28.10;99.90
53802;DHT22;39709;53.334;6.534;2023-06-14T17:26:23;28.20;99.90
53802;DHT22;39709;53.334;6.534;2023-06-14T17:28:51;28.40;99.90
53802;DHT22;39709;53.334;6.534;2023-06-14T17:31:17;28.40;99.90
53802;DHT22;39709;53.334;6.534;2023-06-14T17:33:43;28.30;99.90
53802;DHT22;39709;53.334;6.534;2023-06-14T17:36:08;28.40;99.90
53802;DHT22;39709;53.334;6.534;2023-06-14T17:38:35;28.70;99.90
53802;DHT22;39709;53.334;6.534;2023-06-14T17:41:02;28.80;99.90
53802;DHT22;39709;53.334;6.534;2023-06-14T17:43:36;29.00;99.90